Time;durP1;ratioP1;P1;durP2;ratioP2;P2;SDS_P1;SDS_P2;PMS_P1;PMS_P2;Temp;Humidity;BMP_temperature;BMP_pressure;BME280_temperature;BME280_humidity;BME280_pressure;Samples;Min_cycle;Max_cycle;Signal;HPM_P1;HPM_P2
2022/11/05 00:11:01;;;;;;;6.82;1.48;;;17.40;99.90;;;;;;5072507;28;20032;-81
2022/11/05 00:19:08;;;;;;;5.28;1.38;;;17.30;99.90;;;;;;5073194;28;20136;-80
2022/11/05 00:27:08;;;;;;;8.27;1.35;;;17.10;99.90;;;;;;5072880;28;20074;-81
2022/11/05 00:29:35;;;;;;;8.73;1.38;;;17.10;99.90;;;;;;5054195;28;20435;-80
2022/11/05 00:32:01;;;;;;;6.15;1.20;;;17.20;99.90;;;;;;5053890;28;20115;-81
2022/11/05 00:34:28;;;;;;;7.07;1.50;;;17.20;99.90;;;;;;5071430;28;20028;-81
2022/11/05 00:36:55;;;;;;;6.05;1.27;;;17.30;99.90;;;;;;5072199;28;20028;-81
2022/11/05 00:39:21;;;;;;;4.05;1.20;;;17.40;99.90;;;;;;5054176;28;20536;-81
2022/11/05 00:50:05;;;;;;;3.88;1.40;;;17.20;99.90;;;;;;5051779;28;20059;-81
2022/11/05 00:55:17;;;;;;;11.45;2.15;;;17.30;99.90;;;;;;5051681;28;20031;-81
2022/11/05 00:57:43;;;;;;;10.50;2.00;;;17.40;99.90;;;;;;5051314;28;20024;-81
2022/11/05 01:00:12;;;;;;;8.82;2.00;;;17.40;99.90;;;;;;5051834;28;20315;-81
2022/11/05 01:02:38;;;;;;;8.70;2.28;;;17.40;99.90;;;;;;5051569;28;20064;-81
2022/11/05 01:05:04;;;;;;;8.77;1.98;;;17.30;99.90;;;;;;5051241;28;20017;-81
2022/11/05 01:07:31;;;;;;;8.70;1.80;;;17.40;99.90;;;;;;5051456;28;20033;-81
2022/11/05 01:09:58;;;;;;;8.10;1.92;;;17.40;99.90;;;;;;5051395;28;20060;-81
2022/11/05 01:12:25;;;;;;;8.95;2.13;;;17.30;99.90;;;;;;5051293;28;20029;-82
2022/11/05 01:14:51;;;;;;;10.48;1.60;;;17.20;99.90;;;;;;5033523;28;20025;-83
2022/11/05 01:17:20;;;;;;;8.00;1.40;;;17.00;99.90;;;;;;5051276;28;20044;-81
2022/11/05 01:19:53;;;;;;;10.05;1.60;;;16.90;99.90;;;;;;5051309;28;20163;-82
2022/11/05 01:22:20;;;;;;;6.97;1.25;;;16.80;99.90;;;;;;5051477;28;20432;-82
2022/11/05 01:24:46;;;;;;;5.15;1.17;;;16.70;99.90;;;;;;5051180;28;20025;-81
2022/11/05 01:27:12;;;;;;;8.35;1.67;;;16.40;99.90;;;;;;5051466;28;20025;-82
2022/11/05 01:29:38;;;;;;;9.13;1.40;;;16.20;99.90;;;;;;5051092;28;20123;-82
2022/11/05 01:32:05;;;;;;;5.47;1.57;;;16.10;99.90;;;;;;5033128;28;20132;-82
2022/11/05 01:34:32;;;;;;;7.00;1.63;;;16.10;99.90;;;;;;5051173;28;20389;-82
2022/11/05 01:37:00;;;;;;;10.30;1.67;;;16.20;99.90;;;;;;5033192;28;20509;-82
2022/11/05 01:39:28;;;;;;;7.97;1.50;;;16.20;99.90;;;;;;5049709;28;20128;-82
2022/11/05 01:41:55;;;;;;;6.55;1.58;;;16.20;99.90;;;;;;5033319;28;20041;-81
2022/11/05 01:45:16;;;;;;;6.88;1.10;;;16.10;99.90;;;;;;5052019;28;20071;-83
2022/11/05 01:48:07;;;;;;;7.88;1.45;;;16.20;99.90;;;;;;5054915;28;20083;-81
2022/11/05 01:50:35;;;;;;;7.97;1.48;;;16.10;99.90;;;;;;5055428;28;20056;-82
2022/11/05 01:53:31;;;;;;;7.93;1.40;;;16.10;99.90;;;;;;5054922;28;20024;-82
2022/11/05 01:56:11;;;;;;;8.02;1.35;;;16.10;99.90;;;;;;5055131;28;20145;-82
2022/11/05 01:59:01;;;;;;;6.60;1.58;;;16.20;99.90;;;;;;5055092;28;20031;-81
2022/11/05 02:01:29;;;;;;;6.50;1.35;;;16.20;99.90;;;;;;5044465;28;20037;-82
2022/11/05 02:04:02;;;;;;;8.07;1.77;;;16.10;99.90;;;;;;5037032;28;20032;-82
2022/11/05 02:06:31;;;;;;;6.85;1.50;;;16.20;99.90;;;;;;5055145;28;20104;-80
2022/11/05 02:09:07;;;;;;;10.07;1.75;;;16.20;99.90;;;;;;5036585;28;20032;-81
2022/11/05 02:11:33;;;;;;;5.05;1.92;;;16.10;99.90;;;;;;5055162;28;20100;-81
2022/11/05 02:14:00;;;;;;;9.45;1.85;;;16.10;99.90;;;;;;5036497;28;20025;-81
2022/11/05 02:16:54;;;;;;;6.00;1.70;;;16.20;99.90;;;;;;5054972;28;20025;-81
2022/11/05 02:19:58;;;;;;;10.98;2.65;;;16.10;99.90;;;;;;5054676;28;20025;-81
2022/11/05 02:22:59;;;;;;;7.82;2.15;;;16.10;99.90;;;;;;5054627;28;20496;-81
2022/11/05 02:25:37;;;;;;;6.05;2.00;;;16.00;99.90;;;;;;4973430;28;20467;-82
2022/11/05 02:28:14;;;;;;;8.20;1.67;;;16.10;99.90;;;;;;4973271;28;20099;-81
2022/11/05 02:30:53;;;;;;;5.00;1.35;;;16.10;99.90;;;;;;4974005;28;20109;-82
2022/11/05 02:33:25;;;;;;;5.60;1.20;;;16.10;99.90;;;;;;4973754;28;20038;-81
2022/11/05 02:36:13;;;;;;;3.45;0.98;;;16.10;99.90;;;;;;4973676;28;20035;-81
2022/11/05 02:39:11;;;;;;;2.90;1.00;;;16.00;99.90;;;;;;4973474;28;20062;-81
2022/11/05 02:41:45;;;;;;;5.13;1.30;;;16.10;99.90;;;;;;4973103;28;20055;-81
2022/11/05 02:44:42;;;;;;;6.43;1.30;;;16.10;99.90;;;;;;4973613;28;20396;-81
2022/11/05 02:47:31;;;;;;;6.40;1.40;;;16.00;99.90;;;;;;4972896;28;20109;-81
2022/11/05 02:50:32;;;;;;;4.78;1.58;;;16.00;99.90;;;;;;4937586;29;20502;-81
2022/11/05 02:53:16;;;;;;;6.07;1.63;;;15.90;99.90;;;;;;4943940;28;20101;-82
2022/11/05 02:55:50;;;;;;;5.95;1.67;;;15.90;99.90;;;;;;4953652;28;20423;-81
2022/11/05 02:58:16;;;;;;;3.90;1.13;;;15.80;99.90;;;;;;4937709;29;20031;-82
2022/11/05 03:00:56;;;;;;;6.27;1.10;;;15.80;99.90;;;;;;4953907;29;20471;-81
2022/11/05 03:03:33;;;;;;;3.25;1.15;;;15.80;99.90;;;;;;5032108;28;20053;-81
2022/11/05 03:05:59;;;;;;;;;;;15.80;99.90;;;;;;5034625;28;20136;-81
2022/11/05 03:08:49;;;;;;;6.10;1.65;;;15.80;99.90;;;;;;5034051;28;20455;-81
2022/11/05 03:11:25;;;;;;;7.78;1.02;;;15.80;99.90;;;;;;5034334;28;20492;-82
2022/11/05 03:14:21;;;;;;;6.85;1.00;;;15.80;99.90;;;;;;5033964;28;20449;-82
2022/11/05 03:17:25;;;;;;;3.33;0.60;;;15.80;99.90;;;;;;5033594;28;20061;-82
2022/11/05 03:20:22;;;;;;;2.40;0.77;;;15.90;99.90;;;;;;5033570;28;20088;-81
2022/11/05 03:23:02;;;;;;;4.13;0.80;;;15.90;99.90;;;;;;5016012;28;20053;-82
2022/11/05 03:25:31;;;;;;;1.83;0.57;;;16.00;99.90;;;;;;5033724;28;20053;-82
2022/11/05 03:28:03;;;;;;;3.75;0.77;;;16.10;99.90;;;;;;5015932;28;20351;-81
2022/11/05 03:30:32;;;;;;;4.57;0.70;;;16.00;99.90;;;;;;5032901;28;20041;-82
2022/11/05 03:33:04;;;;;;;3.90;0.73;;;16.00;99.90;;;;;;5033299;28;20052;-82
2022/11/05 03:35:45;;;;;;;3.83;0.60;;;16.00;99.90;;;;;;5033585;28;20094;-82
2022/11/05 03:38:19;;;;;;;2.28;0.55;;;16.00;99.90;;;;;;5033669;28;20488;-82
2022/11/05 03:40:50;;;;;;;2.50;0.60;;;16.00;99.90;;;;;;5033024;28;20385;-80
2022/11/05 03:43:19;;;;;;;3.35;0.80;;;16.00;99.90;;;;;;5033524;28;20482;-81
2022/11/05 03:45:58;;;;;;;2.85;0.68;;;16.10;99.90;;;;;;5032922;28;20103;-81
2022/11/05 03:48:29;;;;;;;3.15;0.80;;;16.10;99.90;;;;;;5041494;28;20064;-81
2022/11/05 03:51:10;;;;;;;3.17;0.73;;;16.10;99.90;;;;;;5052195;28;20065;-82
2022/11/05 03:54:01;;;;;;;3.28;1.00;;;16.10;99.90;;;;;;5034137;28;20021;-82
2022/11/05 03:56:38;;;;;;;7.10;1.10;;;16.10;99.90;;;;;;5051446;28;20036;-80
2022/11/05 03:59:08;;;;;;;2.25;0.77;;;16.20;99.90;;;;;;5052588;28;20028;-81
2022/11/05 04:01:37;;;;;;;5.47;1.02;;;16.20;99.90;;;;;;5052208;28;20040;-82
2022/11/05 04:04:08;;;;;;;4.35;1.15;;;16.10;99.90;;;;;;5052923;28;20029;-83
2022/11/05 04:14:49;;;;;;;2.92;0.70;;;15.10;99.90;;;;;;5038093;28;20179;-83
2022/11/05 04:17:15;;;;;;;2.35;0.60;;;15.00;99.90;;;;;;5052299;28;20033;-82
2022/11/05 04:25:16;;;;;;;2.15;0.60;;;15.10;99.90;;;;;;5054293;28;20079;-82
2022/11/05 04:27:44;;;;;;;1.35;0.50;;;15.20;99.90;;;;;;5053413;28;20044;-82
2022/11/05 04:30:18;;;;;;;3.88;0.77;;;15.30;99.90;;;;;;5053413;28;20028;-81
2022/11/05 04:33:00;;;;;;;3.03;0.55;;;15.40;99.90;;;;;;5020258;28;20035;-82
2022/11/05 04:35:31;;;;;;;4.07;0.50;;;15.50;99.90;;;;;;5053402;28;20385;-82
2022/11/05 04:38:04;;;;;;;3.38;0.60;;;15.50;99.90;;;;;;5053623;28;20036;-76
2022/11/05 04:40:32;;;;;;;3.78;1.00;;;15.50;99.90;;;;;;5035352;28;20025;-83
2022/11/05 04:43:00;;;;;;;5.50;0.77;;;15.50;99.90;;;;;;5053075;28;20124;-81
2022/11/05 04:45:29;;;;;;;5.03;0.90;;;15.50;99.90;;;;;;5057181;28;20032;-80
2022/11/05 04:47:55;;;;;;;2.60;0.60;;;15.50;99.90;;;;;;5072406;28;20484;-81
2022/11/05 04:50:22;;;;;;;4.15;1.02;;;15.50;99.90;;;;;;5072784;28;20523;-81
2022/11/05 04:52:49;;;;;;;7.80;0.88;;;15.50;99.90;;;;;;5071036;28;20100;-82
2022/11/05 04:55:15;;;;;;;5.38;1.00;;;15.50;99.90;;;;;;5054232;28;20162;-82
2022/11/05 04:57:42;;;;;;;7.93;0.88;;;15.60;99.90;;;;;;5053609;28;20493;-82
2022/11/05 05:00:09;;;;;;;5.00;0.90;;;15.50;99.90;;;;;;5053058;28;20036;-82
2022/11/05 05:02:36;;;;;;;6.85;0.77;;;15.50;99.90;;;;;;5054821;28;20102;-81
2022/11/05 05:05:02;;;;;;;5.05;1.10;;;15.50;99.90;;;;;;5072746;28;20029;-82
2022/11/05 05:07:28;;;;;;;5.97;1.33;;;15.50;99.90;;;;;;5073149;28;20481;-82
2022/11/05 05:09:55;;;;;;;3.38;0.90;;;15.50;99.90;;;;;;5071700;28;20032;-82
2022/11/05 05:12:22;;;;;;;7.47;1.10;;;15.50;99.90;;;;;;5072525;28;20052;-81
2022/11/05 05:14:49;;;;;;;5.68;1.23;;;15.50;99.90;;;;;;5073229;28;20066;-83
2022/11/05 05:17:16;;;;;;;6.18;1.00;;;15.50;99.90;;;;;;5072555;28;20330;-83
2022/11/05 05:22:27;;;;;;;8.13;1.35;;;15.50;99.90;;;;;;5072949;28;20035;-83
2022/11/05 05:24:55;;;;;;;5.85;1.08;;;15.50;99.90;;;;;;5072899;28;20074;-84
2022/11/05 05:27:28;;;;;;;5.32;1.27;;;15.40;99.90;;;;;;5072799;28;20436;-83
2022/11/05 05:29:55;;;;;;;10.48;1.40;;;15.50;99.90;;;;;;5073389;28;20497;-83
2022/11/05 05:32:23;;;;;;;10.13;1.58;;;15.50;99.90;;;;;;5072732;28;20380;-82
2022/11/05 05:34:49;;;;;;;5.10;1.23;;;15.60;99.90;;;;;;5072763;28;20070;-81
2022/11/05 05:37:16;;;;;;;6.75;1.40;;;15.60;99.90;;;;;;5054690;28;20021;-85
2022/11/05 05:39:43;;;;;;;8.80;1.70;;;15.50;99.90;;;;;;5073207;28;20078;-85
2022/11/05 05:42:10;;;;;;;8.15;1.13;;;15.50;99.90;;;;;;5072665;28;20405;-85
2022/11/05 05:44:37;;;;;;;;;;;15.50;99.90;;;;;;5073275;28;20024;-86
2022/11/05 05:47:09;;;;;;;8.50;1.50;;;15.50;99.90;;;;;;5054635;28;19905;-87
2022/11/05 05:49:35;;;;;;;6.97;1.65;;;15.60;99.90;;;;;;5072653;28;20040;-86
2022/11/05 05:52:01;;;;;;;8.23;1.70;;;15.70;99.90;;;;;;5073193;28;20408;-87
2022/11/05 05:54:27;;;;;;;5.32;1.60;;;15.60;99.90;;;;;;5073222;28;20274;-87
2022/11/05 05:56:54;;;;;;;5.30;1.77;;;15.70;99.90;;;;;;5073391;28;20021;-86
2022/11/05 05:59:20;;;;;;;3.25;1.30;;;15.50;99.90;;;;;;5073094;28;20024;-85
2022/11/05 06:01:47;;;;;;;;;;;14.90;99.90;;;;;;5071703;28;20044;-85
2022/11/05 06:04:13;;;;;;;3.38;0.90;;;14.60;99.90;;;;;;5072487;28;20019;-86
2022/11/05 06:06:39;;;;;;;4.40;0.90;;;14.50;99.90;;;;;;5054412;28;20119;-86
2022/11/05 06:09:06;;;;;;;2.47;0.80;;;14.60;99.90;;;;;;5072741;28;20024;-85
2022/11/05 06:11:35;;;;;;;3.10;0.70;;;14.70;99.90;;;;;;5073003;28;20071;-86
2022/11/05 06:14:01;;;;;;;4.70;0.80;;;14.90;99.90;;;;;;5071094;28;20025;-85
2022/11/05 06:16:33;;;;;;;7.10;1.55;;;15.00;99.90;;;;;;5071523;28;20110;-85
2022/11/05 06:19:01;;;;;;;3.00;1.00;;;15.20;99.90;;;;;;5073000;28;20013;-86
2022/11/05 06:21:28;;;;;;;9.07;1.20;;;15.30;99.90;;;;;;5072534;28;20025;-80
2022/11/05 06:23:55;;;;;;;3.67;1.10;;;15.40;99.90;;;;;;5072876;28;20081;-81
2022/11/05 06:26:21;;;;;;;;;;;15.50;99.90;;;;;;5072664;28;20309;-81
2022/11/05 06:28:49;;;;;;;8.13;1.60;;;15.60;99.90;;;;;;5072078;28;19919;-81
2022/11/05 06:31:16;;;;;;;5.90;1.52;;;15.70;99.90;;;;;;5072269;28;20021;-81
2022/11/05 06:33:42;;;;;;;6.88;2.00;;;15.70;99.90;;;;;;5075273;28;20028;-81
2022/11/05 06:36:16;;;;;;;6.78;2.30;;;15.70;99.90;;;;;;5075021;28;20012;-82
2022/11/05 06:38:42;;;;;;;6.13;1.77;;;15.70;99.90;;;;;;5075481;28;20029;-81
2022/11/05 06:41:09;;;;;;;5.20;1.70;;;15.70;99.90;;;;;;5074802;28;20036;-82
2022/11/05 06:43:36;;;;;;;9.20;1.70;;;15.60;99.90;;;;;;5074553;28;20068;-81
2022/11/05 06:46:07;;;;;;;8.98;1.70;;;15.50;99.90;;;;;;5073554;28;20056;-81
2022/11/05 06:48:36;;;;;;;5.68;1.38;;;15.40;99.90;;;;;;5074648;28;20528;-82
2022/11/05 06:51:03;;;;;;;7.63;1.45;;;15.40;99.90;;;;;;5074497;28;20028;-82
2022/11/05 06:53:29;;;;;;;5.53;1.60;;;15.30;99.90;;;;;;5074039;28;20101;-81
2022/11/05 06:55:56;;;;;;;6.18;1.50;;;15.20;99.90;;;;;;5073726;28;20024;-76
2022/11/05 06:58:29;;;;;;;10.13;1.63;;;15.20;99.90;;;;;;5073801;28;20483;-81
2022/11/05 07:01:07;;;;;;;9.38;1.17;;;15.10;99.90;;;;;;5073529;28;20287;-81
2022/11/05 07:03:34;;;;;;;10.98;1.55;;;15.10;99.90;;;;;;5074118;28;20033;-80
2022/11/05 07:06:03;;;;;;;8.05;1.58;;;15.00;99.90;;;;;;5073657;28;20499;-80
2022/11/05 07:08:37;;;;;;;10.60;1.58;;;15.00;99.90;;;;;;5074277;28;20071;-80
2022/11/05 07:11:04;;;;;;;9.15;1.20;;;15.10;99.90;;;;;;5073992;28;20074;-80
2022/11/05 07:13:36;;;;;;;;;;;15.10;99.90;;;;;;5074344;28;20028;-81
2022/11/05 07:16:02;;;;;;;7.63;1.40;;;15.20;99.90;;;;;;5073365;28;19912;-79
2022/11/05 07:18:28;;;;;;;8.63;1.80;;;15.30;99.90;;;;;;5073819;28;20023;-80
2022/11/05 07:20:55;;;;;;;5.75;0.88;;;15.20;99.90;;;;;;5074867;28;20275;-79
2022/11/05 07:23:22;;;;;;;9.82;1.60;;;15.20;99.90;;;;;;5074741;28;20032;-80
2022/11/05 07:25:48;;;;;;;8.35;1.23;;;15.20;99.90;;;;;;5074950;28;20027;-80
2022/11/05 07:28:21;;;;;;;4.07;0.93;;;15.20;99.90;;;;;;5056359;28;20423;-80
2022/11/05 07:30:48;;;;;;;5.90;0.95;;;15.20;99.90;;;;;;5075116;28;20286;-80
2022/11/05 07:33:14;;;;;;;7.88;1.50;;;15.20;99.90;;;;;;5073478;28;20029;-80
2022/11/05 07:35:41;;;;;;;3.15;0.75;;;15.20;99.90;;;;;;5074313;28;20039;-79
2022/11/05 07:38:07;;;;;;;6.05;1.15;;;15.40;99.90;;;;;;5074787;28;20342;-78
2022/11/05 07:40:33;;;;;;;5.43;1.20;;;15.40;99.90;;;;;;5074422;28;20024;-78
2022/11/05 07:43:02;;;;;;;8.27;1.50;;;15.50;99.90;;;;;;5073484;28;20051;-78
2022/11/05 07:45:30;;;;;;;8.43;1.15;;;15.70;99.90;;;;;;5074026;28;20032;-79
2022/11/05 07:48:01;;;;;;;4.82;1.40;;;15.90;99.90;;;;;;5073641;28;20358;-80
2022/11/05 07:50:31;;;;;;;5.32;1.00;;;16.40;99.90;;;;;;5074310;28;20530;-79
2022/11/05 07:53:06;;;;;;;6.40;1.15;;;16.80;99.90;;;;;;5073196;28;20108;-79
2022/11/05 07:55:44;;;;;;;6.70;1.35;;;17.10;99.90;;;;;;5055419;28;20021;-80
2022/11/05 07:58:13;;;;;;;5.20;0.90;;;17.40;99.90;;;;;;5073474;28;20032;-79
2022/11/05 08:00:47;;;;;;;9.80;1.15;;;17.70;99.90;;;;;;5073247;28;20039;-80
2022/11/05 08:03:16;;;;;;;7.25;1.42;;;17.90;99.90;;;;;;5073545;28;20121;-79
2022/11/05 08:05:45;;;;;;;6.55;1.25;;;17.90;99.90;;;;;;5055384;28;20029;-80
2022/11/05 08:08:47;;;;;;;6.38;1.30;;;18.10;99.90;;;;;;5055539;28;20365;-82
2022/11/05 08:11:14;;;;;;;8.73;1.45;;;18.20;99.90;;;;;;5073611;28;20024;-80
2022/11/05 08:13:42;;;;;;;8.70;2.00;;;18.20;99.90;;;;;;5072980;28;20468;-80
2022/11/05 08:16:16;;;;;;;7.22;1.35;;;18.30;99.90;;;;;;5073290;28;20028;-80
2022/11/05 08:18:42;;;;;;;8.18;1.52;;;18.60;99.90;;;;;;5072599;28;20036;-82
2022/11/05 08:21:08;;;;;;;6.47;1.40;;;18.90;99.90;;;;;;5055043;28;20020;-81
2022/11/05 08:23:34;;;;;;;8.32;1.50;;;19.20;99.90;;;;;;5073418;28;20056;-81
2022/11/05 08:26:03;;;;;;;8.20;1.30;;;19.60;99.90;;;;;;5073323;28;20021;-79
2022/11/05 08:28:31;;;;;;;8.30;1.55;;;19.90;99.90;;;;;;5073332;28;20033;-79
2022/11/05 08:31:01;;;;;;;9.98;1.70;;;19.90;99.90;;;;;;5073157;28;20024;-80
2022/11/05 08:33:52;;;;;;;8.45;1.38;;;20.00;99.90;;;;;;5073306;28;20383;-82
2022/11/05 08:36:18;;;;;;;6.65;1.50;;;19.60;99.90;;;;;;5073485;28;20419;-81
2022/11/05 08:38:45;;;;;;;12.60;1.80;;;19.40;99.90;;;;;;5073381;28;20472;-82
2022/11/05 08:41:11;;;;;;;8.15;1.30;;;19.00;99.90;;;;;;5073615;28;20102;-81
2022/11/05 08:43:38;;;;;;;9.18;1.60;;;18.90;99.90;;;;;;5073295;28;20029;-81
2022/11/05 08:46:05;;;;;;;7.30;1.90;;;18.70;99.90;;;;;;5072621;28;20028;-81
2022/11/05 08:48:31;;;;;;;8.77;1.60;;;18.40;99.90;;;;;;5072689;28;20048;-82
2022/11/05 08:51:00;;;;;;;8.35;1.10;;;18.60;99.90;;;;;;5072361;28;20070;-82
2022/11/05 08:53:48;;;;;;;11.85;1.63;;;18.80;99.90;;;;;;5071554;28;20039;-82
2022/11/05 08:56:19;;;;;;;8.50;1.70;;;19.00;99.90;;;;;;5071091;28;20028;-82
2022/11/05 08:58:45;;;;;;;6.05;1.15;;;18.90;99.90;;;;;;5071972;28;20329;-83
2022/11/05 09:01:12;;;;;;;9.63;1.63;;;19.00;99.90;;;;;;5071459;28;20024;-85
2022/11/05 09:03:38;;;;;;;6.90;1.45;;;18.80;99.90;;;;;;5069765;28;20168;-84
2022/11/05 09:06:14;;;;;;;10.65;2.25;;;18.70;99.90;;;;;;5071317;28;20050;-85
2022/11/05 09:08:44;;;;;;;10.48;1.90;;;18.50;99.90;;;;;;5071581;28;20020;-83
2022/11/05 09:11:14;;;;;;;6.55;1.48;;;18.30;99.90;;;;;;5071756;28;20036;-86
2022/11/05 09:13:41;;;;;;;6.47;1.80;;;18.20;99.90;;;;;;5071505;28;20024;-88
2022/11/05 09:16:17;;;;;;;9.38;2.08;;;18.00;99.90;;;;;;5055725;28;20040;-86
2022/11/05 09:18:44;;;;;;;10.45;1.60;;;18.00;99.90;;;;;;5054790;28;20033;-88
2022/11/05 09:21:11;;;;;;;13.15;2.10;;;18.00;99.90;;;;;;5055135;28;20166;-86
2022/11/05 09:23:38;;;;;;;15.13;2.55;;;18.20;99.90;;;;;;5054644;28;20040;-87
2022/11/05 09:26:04;;;;;;;;;;;18.20;99.90;;;;;;5055162;28;20021;-87
2022/11/05 09:28:31;;;;;;;18.27;2.20;;;18.20;99.90;;;;;;5072866;28;20498;-84
2022/11/05 09:30:57;;;;;;;17.95;2.72;;;18.20;99.90;;;;;;5071682;28;20037;-86
2022/11/05 09:33:24;;;;;;;13.38;2.05;;;18.30;99.90;;;;;;5074963;28;20028;-86
2022/11/05 09:35:52;;;;;;;10.15;1.77;;;18.20;99.90;;;;;;5054905;28;20112;-86
2022/11/05 09:38:46;;;;;;;12.48;1.65;;;18.10;99.90;;;;;;5072870;28;20028;-86
2022/11/05 09:41:36;;;;;;;13.82;2.35;;;17.90;99.90;;;;;;5054504;28;20089;-86
2022/11/05 09:44:21;;;;;;;14.07;2.00;;;17.30;99.90;;;;;;5054788;28;20052;-84
2022/11/05 09:46:58;;;;;;;9.17;1.80;;;16.80;99.90;;;;;;5073186;28;20500;-86
2022/11/05 09:49:39;;;;;;;8.90;1.42;;;16.30;99.90;;;;;;5072715;28;20365;-85
2022/11/05 09:52:22;;;;;;;11.77;1.35;;;16.00;99.90;;;;;;5072514;28;20318;-86
2022/11/05 09:54:49;;;;;;;12.32;1.75;;;15.80;99.90;;;;;;5072840;28;20094;-85
2022/11/05 09:57:38;;;;;;;10.23;1.60;;;15.90;99.90;;;;;;5072593;28;20017;-87
2022/11/05 10:00:07;;;;;;;10.15;1.38;;;16.00;99.90;;;;;;5074329;28;20033;-84
2022/11/05 10:02:47;;;;;;;13.73;1.77;;;16.10;99.90;;;;;;5070838;28;20043;-86
2022/11/05 10:05:14;;;;;;;15.95;2.13;;;16.30;99.90;;;;;;5054069;28;20124;-84
2022/11/05 10:07:42;;;;;;;;;;;16.50;99.90;;;;;;5075528;28;20108;-84
2022/11/05 10:10:33;;;;;;;9.77;1.90;;;16.80;99.90;;;;;;5075716;28;19904;-84
2022/11/05 10:13:06;;;;;;;14.98;1.83;;;17.10;99.90;;;;;;5076241;28;20039;-85
2022/11/05 10:15:39;;;;;;;9.80;1.52;;;17.30;99.90;;;;;;5075695;28;20028;-85
2022/11/05 10:18:23;;;;;;;12.38;1.70;;;17.60;99.90;;;;;;5076177;28;20022;-85
2022/11/05 10:20:52;;;;;;;9.35;1.20;;;17.80;99.90;;;;;;5057649;28;20565;-88
2022/11/05 10:23:20;;;;;;;6.93;1.40;;;18.10;99.90;;;;;;5057333;28;20041;-87
2022/11/05 10:25:52;;;;;;;7.18;1.58;;;18.20;99.90;;;;;;5057624;28;20074;-88
2022/11/05 10:28:20;;;;;;;7.57;1.20;;;18.40;99.90;;;;;;5075374;28;20024;-86
2022/11/05 10:30:50;;;;;;;4.43;1.13;;;18.80;99.90;;;;;;5057013;28;20028;-84
2022/11/05 10:33:27;;;;;;;9.85;1.45;;;19.00;99.90;;;;;;5075382;28;20020;-85
2022/11/05 10:35:59;;;;;;;10.50;1.60;;;19.00;99.90;;;;;;5075417;28;20040;-89
2022/11/05 10:38:25;;;;;;;8.70;1.35;;;19.10;99.90;;;;;;5075515;28;20123;-88
2022/11/05 10:40:57;;;;;;;7.47;1.35;;;19.10;99.90;;;;;;5077000;28;20032;-88
2022/11/05 10:43:30;;;;;;;14.07;1.60;;;19.30;99.90;;;;;;5075509;28;20094;-87
2022/11/05 10:46:26;;;;;;;9.70;1.35;;;19.40;99.90;;;;;;5075320;28;20115;-87
2022/11/05 10:52:23;;;;;;;6.93;1.20;;;19.00;99.90;;;;;;5033158;28;20044;-86
2022/11/05 10:54:52;;;;;;;10.43;1.23;;;18.30;99.90;;;;;;5033183;28;20030;-84
2022/11/05 10:57:31;;;;;;;9.07;1.55;;;17.80;99.90;;;;;;5033671;28;20045;-85
2022/11/05 11:00:15;;;;;;;12.32;2.03;;;17.50;99.90;;;;;;5033771;28;20159;-86
2022/11/05 11:02:57;;;;;;;11.30;1.50;;;17.20;99.90;;;;;;5032140;28;20033;-85
2022/11/05 11:05:28;;;;;;;7.45;0.90;;;16.90;99.90;;;;;;5015484;28;20021;-86
2022/11/05 11:08:22;;;;;;;6.25;1.00;;;16.50;99.90;;;;;;5016028;28;20144;-86
2022/11/05 11:10:56;;;;;;;4.82;0.80;;;16.30;99.90;;;;;;4941784;28;20183;-87
2022/11/05 11:13:25;;;;;;;7.47;1.10;;;16.10;99.90;;;;;;4974581;28;20038;-85
2022/11/05 11:15:52;;;;;;;8.38;1.20;;;16.00;99.90;;;;;;4975261;28;20035;-87
2022/11/05 11:18:29;;;;;;;;;;;16.20;99.90;;;;;;4973219;28;20165;-86
2022/11/05 11:21:18;;;;;;;10.80;1.50;;;16.10;99.90;;;;;;4991355;28;19905;-87
2022/11/05 11:23:54;;;;;;;9.07;1.85;;;16.00;99.90;;;;;;4976253;28;20034;-85
2022/11/05 11:26:48;;;;;;;7.60;1.33;;;16.10;99.90;;;;;;4992765;28;20030;-86
2022/11/05 11:29:14;;;;;;;6.70;1.10;;;16.00;99.90;;;;;;4992874;28;20161;-87
2022/11/05 11:31:40;;;;;;;7.07;1.47;;;16.10;99.90;;;;;;4993079;28;20101;-84
2022/11/05 11:34:27;;;;;;;6.13;1.40;;;16.30;99.90;;;;;;4991955;28;20292;-82
2022/11/05 11:37:08;;;;;;;10.32;2.00;;;16.30;99.90;;;;;;4991944;28;20036;-84
2022/11/05 11:39:37;;;;;;;7.22;1.58;;;16.20;99.90;;;;;;4992267;28;20174;-84
2022/11/05 11:42:18;;;;;;;5.47;1.83;;;16.00;99.90;;;;;;4991685;28;20046;-83
2022/11/05 11:44:46;;;;;;;8.75;1.60;;;16.00;99.90;;;;;;4992137;28;20104;-87
2022/11/05 11:47:16;;;;;;;6.97;2.00;;;15.90;99.90;;;;;;5016058;28;20032;-85
2022/11/05 11:50:02;;;;;;;5.00;1.60;;;15.80;99.90;;;;;;5073085;28;20063;-86
2022/11/05 11:52:46;;;;;;;3.65;1.10;;;15.90;99.90;;;;;;5073826;28;20029;-86
2022/11/05 11:55:18;;;;;;;3.05;1.20;;;15.80;99.90;;;;;;5055319;28;20025;-84
2022/11/05 11:57:51;;;;;;;3.45;1.05;;;15.60;99.90;;;;;;5073569;28;20020;-84
2022/11/05 12:00:26;;;;;;;5.18;1.30;;;15.70;99.90;;;;;;5074370;28;20032;-85
2022/11/05 12:03:05;;;;;;;5.13;1.35;;;15.90;99.90;;;;;;5054824;28;20090;-85
2022/11/05 12:05:49;;;;;;;6.05;1.42;;;15.90;99.90;;;;;;5072763;28;20024;-84
2022/11/05 12:08:37;;;;;;;3.15;1.13;;;15.80;99.90;;;;;;5073560;28;20361;-84
2022/11/05 12:11:34;;;;;;;3.28;1.20;;;15.80;99.90;;;;;;5054959;28;20037;-85
2022/11/05 12:14:12;;;;;;;4.00;0.73;;;16.00;99.90;;;;;;5073823;28;20032;-87
2022/11/05 12:17:29;;;;;;;4.18;0.80;;;15.90;99.90;;;;;;5055211;28;20032;-78
2022/11/05 12:20:25;;;;;;;4.43;1.20;;;15.90;99.90;;;;;;4992631;28;20035;-75
2022/11/05 12:23:16;;;;;;;5.35;1.15;;;15.80;99.90;;;;;;4991988;28;20038;-75
2022/11/05 12:25:46;;;;;;;3.85;0.90;;;16.00;99.90;;;;;;4992174;28;20046;-75
2022/11/05 12:28:42;;;;;;;3.03;0.90;;;16.00;99.90;;;;;;4991976;28;20034;-76
2022/11/05 12:31:25;;;;;;;3.40;1.02;;;16.10;99.90;;;;;;4992253;28;20034;-75
2022/11/05 12:34:01;;;;;;;2.97;1.20;;;16.10;99.90;;;;;;4992002;28;20038;-76
2022/11/05 12:36:57;;;;;;;4.80;1.20;;;16.10;99.90;;;;;;4992455;28;20104;-76
2022/11/05 12:39:24;;;;;;;4.72;1.40;;;16.20;99.90;;;;;;4992280;28;20026;-75
2022/11/05 12:42:14;;;;;;;5.20;1.60;;;16.40;99.90;;;;;;4991607;28;20030;-77
2022/11/05 12:44:57;;;;;;;9.60;1.63;;;16.50;99.90;;;;;;4992073;28;20383;-76
2022/11/05 12:47:58;;;;;;;3.03;1.50;;;16.60;99.90;;;;;;4991503;28;20034;-75
2022/11/05 12:50:40;;;;;;;5.03;1.80;;;16.70;99.90;;;;;;5022328;28;20045;-77
2022/11/05 12:53:44;;;;;;;4.05;1.52;;;16.60;99.90;;;;;;5054533;28;20496;-77
2022/11/05 12:56:53;;;;;;;5.53;1.25;;;16.60;99.90;;;;;;5073289;28;20494;-76
2022/11/05 12:59:41;;;;;;;5.15;1.33;;;16.60;99.90;;;;;;4991809;28;20035;-76
2022/11/05 13:02:29;;;;;;;2.30;1.00;;;16.50;99.90;;;;;;4991942;28;20030;-76
2022/11/05 13:05:04;;;;;;;4.53;1.20;;;16.40;99.90;;;;;;4991676;28;20061;-75
2022/11/05 13:07:38;;;;;;;;;;;16.40;99.90;;;;;;4991913;28;20108;-75
2022/11/05 13:10:26;;;;;;;3.60;1.05;;;16.40;99.90;;;;;;4992034;28;19905;-75
2022/11/05 13:13:17;;;;;;;4.78;1.13;;;16.40;99.90;;;;;;4991565;28;20085;-76
2022/11/05 13:15:56;;;;;;;5.07;1.17;;;16.50;99.90;;;;;;4991710;28;20097;-76
2022/11/05 13:18:46;;;;;;;10.80;1.83;;;16.60;99.90;;;;;;4991464;28;20379;-77
2022/11/05 13:21:14;;;;;;;5.57;1.25;;;16.60;99.90;;;;;;4992080;28;20030;-76
2022/11/05 13:23:54;;;;;;;3.47;0.80;;;16.70;99.90;;;;;;4991617;28;20050;-76
2022/11/05 13:26:40;;;;;;;9.05;1.40;;;16.80;99.90;;;;;;4992129;28;20482;-76
2022/11/05 13:29:17;;;;;;;8.02;1.40;;;16.70;99.90;;;;;;4991562;28;20074;-75
2022/11/05 13:31:52;;;;;;;4.63;1.00;;;16.70;99.90;;;;;;4991715;28;20050;-77
2022/11/05 13:34:19;;;;;;;4.40;1.05;;;16.70;99.90;;;;;;4975282;28;20065;-76
2022/11/05 13:40:00;;;;;;;5.03;1.27;;;16.60;99.90;;;;;;5073091;28;20052;-76
2022/11/05 13:43:00;;;;;;;9.32;1.27;;;16.60;99.90;;;;;;5077336;28;20040;-77
2022/11/05 13:45:45;;;;;;;5.18;1.40;;;16.60;99.90;;;;;;5077338;28;20104;-76
2022/11/05 13:48:51;;;;;;;5.97;1.10;;;16.60;99.90;;;;;;5076985;28;20485;-75
2022/11/05 13:52:07;;;;;;;5.60;1.10;;;16.50;99.90;;;;;;5075685;28;20042;-76
2022/11/05 13:55:00;;;;;;;5.00;1.20;;;16.50;99.90;;;;;;5059325;28;20043;-76
2022/11/05 13:57:46;;;;;;;10.60;2.08;;;16.50;99.90;;;;;;5077134;28;20077;-77
2022/11/05 14:00:17;;;;;;;11.65;2.50;;;16.50;99.90;;;;;;5076947;28;20025;-77
2022/11/05 14:02:52;;;;;;;10.88;2.10;;;16.40;99.90;;;;;;5076818;28;20070;-76
2022/11/05 14:05:25;;;;;;;5.40;1.50;;;16.30;99.90;;;;;;5076766;28;20024;-77
2022/11/05 14:07:54;;;;;;;8.35;1.60;;;16.30;99.90;;;;;;5076888;28;20032;-75
2022/11/05 14:10:35;;;;;;;10.27;1.70;;;16.30;99.90;;;;;;5076304;28;20021;-76
2022/11/05 14:13:17;;;;;;;15.77;1.80;;;16.20;99.90;;;;;;5076639;28;20071;-74
2022/11/05 14:16:09;;;;;;;14.23;1.90;;;16.20;99.90;;;;;;5076858;28;20528;-77
2022/11/05 14:19:06;;;;;;;12.77;1.85;;;16.20;99.90;;;;;;5076471;28;20048;-76
2022/11/05 14:21:48;;;;;;;11.35;1.70;;;16.10;99.90;;;;;;5058234;28;20033;-76